Nippon Maru — 3FDA7 — position and weather

sailwx.info

Track history (hours):
 
Tides and Currents Weather Stations Pressure Air Temp Water Temp Dewpoint Dewpoint Depression Visibility Wind Speed Wind Dir Waves Ship Positions

Nippon Maru

Last reported at 2016-Apr-21 12:17 UTC. Time now 2016-May-25 14:58 UTC.
Position N 46°54' W 128°49'.
Warning: this ship's position is 34 days out of date.

Length 190 m; draft 10.7 m.

Type: Cargo ship. MMSI: 353814000.

Date/timePositionNaut miles runAvg speedWind from/ knotsBaromVisibWave heightAir tempDewpointWater temp
2016-Apr-21 12:17N 46°54' W 128°49'911.7
2016-Apr-21 11:33N 46°54' W 128°36'1111.6
2016-Apr-21 10:33N 46°54' W 128°19'1511.6
2016-Apr-21 09:15N 46°54' W 127°57'1111.8
2016-Apr-21 08:19N 46°54' W 127°41'912.0
2016-Apr-21 07:33N 46°54' W 127°28'1212.1
2016-Apr-21 06:33N 46°54' W 127°10'1212.0
2016-Apr-21 05:33N 46°53' W 126°52'1211.7
2016-Apr-21 04:34N 46°53' W 126°35'1211.9
2016-Apr-21 03:33N 46°53' W 126°18'1211.9
2016-Apr-21 02:33N 46°53' W 126°00'1211.8
2016-Apr-21 01:33N 46°53' W 125°43'1311.5
2016-Apr-21 00:23N 46°53' W 125°23'911.4
2016-Apr-20 23:33N 46°52' W 125°10'1211.9
2016-Apr-20 22:33N 46°52' W 124°52'1211.8
2016-Apr-20 21:33N 46°52' W 124°35'1111.4
2016-Apr-20 20:33N 46°52' W 124°18'7 7.3
2016-Apr-20 19:33N 46°55' W 124°08'  
2016-Apr-14 00:30N 46°58' W 123°53'9 9.9
2016-Apr-13 23:33N 46°55' W 124°06'0 0.2
2016-Apr-13 21:33N 46°55' W 124°07'0 0.1
2016-Apr-13 20:30N 46°55' W 124°07'0 0.1
2016-Apr-13 19:27N 46°55' W 124°07'0 0.0
2016-Apr-13 17:27N 46°55' W 124°07'0 0.0
2016-Apr-13 16:33N 46°55' W 124°07'0 0.0
2016-Apr-13 15:27N 46°55' W 124°07'0 0.0
2016-Apr-13 14:30N 46°55' W 124°07'0 0.2
2016-Apr-13 13:33N 46°55' W 124°07'0 0.1
2016-Apr-13 12:33N 46°55' W 124°07'0 0.1
2016-Apr-13 11:33N 46°55' W 124°07'0 0.0
2016-Apr-13 08:33N 46°55' W 124°07'0 0.0
2016-Apr-13 07:33N 46°55' W 124°07'0 0.2
2016-Apr-13 06:33N 46°55' W 124°07'0 0.0
2016-Apr-13 05:33N 46°55' W 124°07'0 0.0
2016-Apr-13 04:33N 46°55' W 124°07'0 0.0
2016-Apr-13 03:30N 46°55' W 124°07'0 0.2
2016-Apr-13 02:30N 46°55' W 124°07'0 0.1
2016-Apr-13 01:27N 46°55' W 124°07'0 0.1
2016-Apr-13 00:33N 46°55' W 124°07'0 0.0
2016-Apr-12 22:09N 46°55' W 124°07'0 0.6
2016-Apr-12 21:33N 46°55' W 124°07'6 6.3
2016-Apr-12 20:33N 46°54' W 124°16'3 3.3
2016-Apr-12 19:33N 46°51' W 124°17'5 4.8
2016-Apr-12 18:33N 46°53' W 124°23'6 5.9
2016-Apr-12 17:33N 46°53' W 124°32'7 7.3
2016-Apr-12 16:33N 46°55' W 124°42'7 6.8
2016-Apr-12 15:33N 46°55' W 124°52'7 7.3
2016-Apr-12 14:33N 46°55' W 125°03'6 6.2
2016-Apr-12 13:33N 46°54' W 125°12'  
Track history (hours):
 
Tides and Currents Weather Stations Pressure Air Temp Water Temp Dewpoint Dewpoint Depression Visibility Wind Speed Wind Dir Waves Ship Positions

Nippon Maru

Last reported at 2016-Apr-21 12:17 UTC. Time now 2016-May-25 14:58 UTC.
Position N 46°54' W 128°49'.
Warning: this ship's position is 34 days out of date.

Length 190 m; draft 10.7 m.

Type: Cargo ship. MMSI: 353814000.

Date/timePositionNaut miles runAvg speedWind from/ knotsBaromVisibWave heightAir tempDewpointWater temp
2016-Apr-21 12:17N 46°54' W 128°49'911.7
2016-Apr-21 11:33N 46°54' W 128°36'1111.6
2016-Apr-21 10:33N 46°54' W 128°19'1511.6
2016-Apr-21 09:15N 46°54' W 127°57'1111.8
2016-Apr-21 08:19N 46°54' W 127°41'912.0
2016-Apr-21 07:33N 46°54' W 127°28'1212.1
2016-Apr-21 06:33N 46°54' W 127°10'1212.0
2016-Apr-21 05:33N 46°53' W 126°52'1211.7
2016-Apr-21 04:34N 46°53' W 126°35'1211.9
2016-Apr-21 03:33N 46°53' W 126°18'1211.9
2016-Apr-21 02:33N 46°53' W 126°00'1211.8
2016-Apr-21 01:33N 46°53' W 125°43'1311.5
2016-Apr-21 00:23N 46°53' W 125°23'911.4
2016-Apr-20 23:33N 46°52' W 125°10'1211.9
2016-Apr-20 22:33N 46°52' W 124°52'1211.8
2016-Apr-20 21:33N 46°52' W 124°35'1111.4
2016-Apr-20 20:33N 46°52' W 124°18'7 7.3
2016-Apr-20 19:33N 46°55' W 124°08'  
2016-Apr-14 00:30N 46°58' W 123°53'9 9.9
2016-Apr-13 23:33N 46°55' W 124°06'0 0.2
2016-Apr-13 21:33N 46°55' W 124°07'0 0.1
2016-Apr-13 20:30N 46°55' W 124°07'0 0.1
2016-Apr-13 19:27N 46°55' W 124°07'0 0.0
2016-Apr-13 17:27N 46°55' W 124°07'0 0.0
2016-Apr-13 16:33N 46°55' W 124°07'0 0.0
2016-Apr-13 15:27N 46°55' W 124°07'0 0.0
2016-Apr-13 14:30N 46°55' W 124°07'0 0.2
2016-Apr-13 13:33N 46°55' W 124°07'0 0.1
2016-Apr-13 12:33N 46°55' W 124°07'0 0.1
2016-Apr-13 11:33N 46°55' W 124°07'0 0.0
2016-Apr-13 08:33N 46°55' W 124°07'0 0.0
2016-Apr-13 07:33N 46°55' W 124°07'0 0.2
2016-Apr-13 06:33N 46°55' W 124°07'0 0.0
2016-Apr-13 05:33N 46°55' W 124°07'0 0.0
2016-Apr-13 04:33N 46°55' W 124°07'0 0.0
2016-Apr-13 03:30N 46°55' W 124°07'0 0.2
2016-Apr-13 02:30N 46°55' W 124°07'0 0.1
2016-Apr-13 01:27N 46°55' W 124°07'0 0.1
2016-Apr-13 00:33N 46°55' W 124°07'0 0.0
2016-Apr-12 22:09N 46°55' W 124°07'0 0.6
2016-Apr-12 21:33N 46°55' W 124°07'6 6.3
2016-Apr-12 20:33N 46°54' W 124°16'3 3.3
2016-Apr-12 19:33N 46°51' W 124°17'5 4.8
2016-Apr-12 18:33N 46°53' W 124°23'6 5.9
2016-Apr-12 17:33N 46°53' W 124°32'7 7.3
2016-Apr-12 16:33N 46°55' W 124°42'7 6.8
2016-Apr-12 15:33N 46°55' W 124°52'7 7.3
2016-Apr-12 14:33N 46°55' W 125°03'6 6.2
2016-Apr-12 13:33N 46°54' W 125°12'  

Dump ship's entire track history